createdAt,value
2018-12-19T00:00:39.460Z,18.97
2018-12-19T00:03:10.078Z,18.07
2018-12-19T00:05:40.720Z,19.60
2018-12-19T00:08:09.416Z,18.57
2018-12-19T00:10:38.224Z,18.90
2018-12-19T00:13:08.910Z,19.60
2018-12-19T00:15:37.676Z,20.00
2018-12-19T00:18:06.519Z,19.03
2018-12-19T00:20:35.228Z,18.93
2018-12-19T00:23:03.983Z,18.13
2018-12-19T00:25:32.788Z,18.60
2018-12-19T00:28:03.533Z,17.93
2018-12-19T00:30:34.223Z,17.93
2018-12-19T00:33:04.991Z,19.07
2018-12-19T00:35:35.604Z,17.37
2018-12-19T00:38:04.369Z,18.73
2018-12-19T00:40:33.123Z,18.47
2018-12-19T00:43:01.894Z,18.43
2018-12-19T00:45:30.788Z,19.20
2018-12-19T00:47:59.516Z,18.90
2018-12-19T00:50:29.132Z,19.23
2018-12-19T00:52:57.877Z,18.80
2018-12-19T00:55:26.648Z,19.67
2018-12-19T00:57:56.412Z,19.32
2018-12-19T01:00:25.190Z,18.20
2018-12-19T01:02:53.878Z,17.90
2018-12-19T01:05:22.616Z,18.30
2018-12-19T01:07:51.379Z,18.63
2018-12-19T01:10:20.335Z,18.60
2018-12-19T01:12:49.779Z,18.07
2018-12-19T01:15:18.614Z,18.93
2018-12-19T01:17:47.522Z,18.97
2018-12-19T01:20:16.340Z,19.27
2018-12-19T01:22:45.184Z,18.37
2018-12-19T01:25:14.021Z,19.10
2018-12-19T01:27:42.753Z,18.13
2018-12-19T01:30:11.536Z,18.13
2018-12-19T01:32:40.298Z,18.03
2018-12-19T01:35:09.088Z,18.13
2018-12-19T01:37:37.869Z,17.37
2018-12-19T01:40:06.985Z,18.50
2018-12-19T01:42:35.728Z,18.30
2018-12-19T01:45:04.982Z,17.83
2018-12-19T01:47:33.737Z,18.37
2018-12-19T01:50:02.450Z,18.10
2018-12-19T01:52:31.289Z,18.60
2018-12-19T01:55:00.018Z,17.97
2018-12-19T01:57:34.661Z,17.47
2018-12-19T02:00:03.981Z,18.77
2018-12-19T02:02:32.991Z,18.50
2018-12-19T02:05:01.818Z,17.80
2018-12-19T02:07:30.600Z,18.80
2018-12-19T02:09:59.325Z,18.33
2018-12-19T02:12:28.057Z,19.13
2018-12-19T02:14:56.786Z,19.10
2018-12-19T02:17:25.937Z,18.93
2018-12-19T02:19:54.727Z,20.60
2018-12-19T02:22:23.569Z,19.20
2018-12-19T02:24:58.948Z,19.77
2018-12-19T02:27:27.804Z,20.57
2018-12-19T02:29:56.984Z,20.13
2018-12-19T02:32:25.975Z,19.50
2018-12-19T02:34:54.735Z,19.67
2018-12-19T02:37:24.029Z,20.33
2018-12-19T02:39:52.756Z,19.97
2018-12-19T02:42:21.475Z,19.23
2018-12-19T02:44:50.476Z,19.77
2018-12-19T02:47:19.306Z,19.33
2018-12-19T02:49:48.192Z,20.10
2018-12-19T02:52:18.141Z,19.70
2018-12-19T02:54:46.888Z,20.63
2018-12-19T02:57:15.638Z,20.40
2018-12-19T02:59:44.390Z,20.07
2018-12-19T03:02:13.129Z,20.63
2018-12-19T03:04:41.867Z,21.00
2018-12-19T03:07:10.678Z,20.57
2018-12-19T03:09:42.975Z,19.80
2018-12-19T03:12:10.104Z,20.20
2018-12-19T03:14:38.897Z,20.23
2018-12-19T03:17:07.742Z,19.67
2018-12-19T03:19:36.545Z,18.73
2018-12-19T03:22:05.294Z,20.20
2018-12-19T03:24:34.032Z,20.47
2018-12-19T03:27:03.044Z,18.27
2018-12-19T03:29:31.824Z,20.10
2018-12-19T03:32:01.213Z,18.67
2018-12-19T03:34:30.023Z,19.93
2018-12-19T03:36:59.043Z,19.60
2018-12-19T03:39:27.846Z,17.70
2018-12-19T03:41:56.696Z,19.90
2018-12-19T03:44:25.395Z,19.60
2018-12-19T03:46:54.180Z,19.30
2018-12-19T03:49:22.952Z,18.80
2018-12-19T03:51:51.797Z,20.37
2018-12-19T03:54:20.799Z,19.60
2018-12-19T03:56:49.875Z,20.07
2018-12-19T03:59:18.678Z,19.37
2018-12-19T04:01:47.355Z,19.47
2018-12-19T04:04:16.099Z,19.63
2018-12-19T04:06:44.843Z,18.50
2018-12-19T04:09:13.588Z,18.93
2018-12-19T04:11:42.340Z,17.97
2018-12-19T04:14:11.006Z,17.03
2018-12-19T04:16:39.679Z,19.63
2018-12-19T04:19:08.439Z,18.40
2018-12-19T04:21:39.204Z,18.43
2018-12-19T04:24:07.993Z,19.00
2018-12-19T04:26:36.689Z,18.97
2018-12-19T04:29:05.465Z,19.90
2018-12-19T04:31:34.136Z,19.60
2018-12-19T04:34:02.873Z,19.63
2018-12-19T04:36:31.706Z,18.02
2018-12-19T04:39:00.451Z,19.87
2018-12-19T04:41:29.306Z,17.87
2018-12-19T04:43:57.997Z,18.37
2018-12-19T04:46:26.763Z,18.00
2018-12-19T04:48:55.524Z,18.90
2018-12-19T04:51:24.270Z,19.70
2018-12-19T04:53:52.953Z,18.57
2018-12-19T04:56:21.713Z,18.30
2018-12-19T04:58:50.388Z,18.63
2018-12-19T05:01:19.543Z,18.63
2018-12-19T05:03:48.361Z,19.50
2018-12-19T05:06:17.145Z,19.00
2018-12-19T05:08:45.850Z,20.00
2018-12-19T05:11:14.619Z,19.25
2018-12-19T05:13:43.287Z,19.47
2018-12-19T05:16:11.968Z,19.27
2018-12-19T05:18:40.704Z,19.23
2018-12-19T05:21:09.372Z,19.57
2018-12-19T05:23:38.061Z,20.07
2018-12-19T05:26:06.792Z,20.03
2018-12-19T05:28:35.546Z,19.90
2018-12-19T05:31:04.405Z,19.53
2018-12-19T05:33:33.147Z,20.63
2018-12-19T05:36:01.889Z,19.17
2018-12-19T05:38:30.660Z,21.93
2018-12-19T05:40:59.345Z,20.67
2018-12-19T05:43:28.113Z,19.83
2018-12-19T05:45:56.863Z,20.87
2018-12-19T05:48:25.595Z,21.17
2018-12-19T05:50:54.309Z,20.70
2018-12-19T05:53:23.053Z,21.57
2018-12-19T05:55:51.727Z,20.37
2018-12-19T05:58:20.801Z,20.50
2018-12-19T06:00:49.535Z,22.10
2018-12-19T06:03:20.755Z,21.60
2018-12-19T06:05:49.532Z,22.00
2018-12-19T06:08:18.234Z,21.80
2018-12-19T06:10:47.032Z,20.77
2018-12-19T06:13:15.756Z,21.73
2018-12-19T06:15:44.515Z,20.97
2018-12-19T06:18:13.212Z,21.63
2018-12-19T06:20:48.615Z,22.67
2018-12-19T06:23:17.295Z,21.67
2018-12-19T06:25:45.991Z,21.40
2018-12-19T06:28:14.727Z,21.93
2018-12-19T06:30:43.476Z,22.27
2018-12-19T06:33:12.152Z,21.30
2018-12-19T06:35:40.837Z,22.70
2018-12-19T06:38:09.607Z,22.87
2018-12-19T06:40:38.417Z,22.30
2018-12-19T06:43:07.197Z,22.03
2018-12-19T06:45:35.864Z,22.37
2018-12-19T06:48:04.618Z,22.70
2018-12-19T06:50:33.318Z,21.87
2018-12-19T06:53:02.148Z,22.93
2018-12-19T06:55:31.948Z,21.27
2018-12-19T06:58:00.682Z,22.30
2018-12-19T07:00:29.563Z,21.33
2018-12-19T07:02:58.334Z,22.77
2018-12-19T07:05:27.076Z,22.23
2018-12-19T07:07:55.808Z,22.33
2018-12-19T07:10:24.590Z,22.97
2018-12-19T07:12:53.343Z,22.57
2018-12-19T07:15:22.223Z,23.17
2018-12-19T07:17:51.427Z,23.23
2018-12-19T07:20:20.287Z,23.03
2018-12-19T07:22:49.143Z,23.20
2018-12-19T07:25:17.955Z,21.87
2018-12-19T07:27:46.694Z,23.30
2018-12-19T07:30:15.484Z,24.67
2018-12-19T07:32:44.259Z,24.80
2018-12-19T07:35:13.176Z,24.37
2018-12-19T07:37:41.966Z,23.77
2018-12-19T07:40:10.753Z,22.83
2018-12-19T07:42:39.584Z,22.73
2018-12-19T07:45:08.447Z,21.83
2018-12-19T07:47:37.206Z,23.30
2018-12-19T07:50:07.561Z,23.73
2018-12-19T07:52:37.318Z,22.60
2018-12-19T07:55:06.188Z,23.40
2018-12-19T07:57:34.888Z,22.27
2018-12-19T08:00:04.528Z,24.10
2018-12-19T08:02:34.210Z,22.10
2018-12-19T08:05:04.398Z,23.97
2018-12-19T08:07:33.187Z,23.13
2018-12-19T08:10:02.035Z,22.63
2018-12-19T08:12:36.052Z,22.47
2018-12-19T08:15:02.478Z,22.33
2018-12-19T08:17:31.301Z,23.37
2018-12-19T08:20:06.434Z,22.47
2018-12-19T08:22:35.253Z,22.87
2018-12-19T08:25:05.350Z,22.90
2018-12-19T08:27:34.117Z,23.27
2018-12-19T08:30:03.011Z,23.40
2018-12-19T08:32:31.741Z,22.60
2018-12-19T08:35:00.596Z,22.03
2018-12-19T08:37:29.391Z,22.53
2018-12-19T08:39:58.088Z,23.70
2018-12-19T08:42:26.870Z,21.87
2018-12-19T08:44:55.583Z,22.37
2018-12-19T08:47:24.432Z,21.77
2018-12-19T08:49:53.161Z,22.40
2018-12-19T08:52:21.887Z,20.93
2018-12-19T08:54:50.618Z,22.17
2018-12-19T08:57:19.390Z,20.97
2018-12-19T08:59:48.293Z,20.27
2018-12-19T09:02:17.124Z,20.97
2018-12-19T09:04:45.864Z,20.77
2018-12-19T09:07:14.576Z,20.90
2018-12-19T09:09:43.284Z,19.93
2018-12-19T09:12:12.076Z,19.97
2018-12-19T09:14:40.908Z,19.83
2018-12-19T09:17:10.319Z,20.20
2018-12-19T09:19:39.324Z,19.33
2018-12-19T09:22:08.154Z,18.77
2018-12-19T09:24:36.867Z,19.43
2018-12-19T09:27:05.773Z,19.07
2018-12-19T09:29:34.491Z,18.80
2018-12-19T09:32:03.511Z,19.47
2018-12-19T09:34:32.377Z,19.60
2018-12-19T09:37:01.108Z,19.63
2018-12-19T09:39:29.832Z,20.00
2018-12-19T09:41:58.617Z,18.60
2018-12-19T09:44:27.352Z,18.77
2018-12-19T09:46:56.074Z,19.57
2018-12-19T09:49:24.864Z,20.37
2018-12-19T09:51:53.692Z,19.57
2018-12-19T09:54:22.396Z,19.60
2018-12-19T09:56:53.462Z,19.60
2018-12-19T09:59:22.301Z,20.07
2018-12-19T10:01:51.030Z,20.23
2018-12-19T10:04:19.768Z,19.67
2018-12-19T10:06:48.487Z,20.00
2018-12-19T10:09:17.304Z,20.87
2018-12-19T10:11:46.032Z,20.07
2018-12-19T10:14:14.727Z,20.10
2018-12-19T10:16:43.448Z,20.53
2018-12-19T10:19:12.329Z,19.53
2018-12-19T10:21:41.116Z,18.83
2018-12-19T10:24:09.838Z,19.40
2018-12-19T10:26:38.600Z,18.73
2018-12-19T10:29:07.355Z,18.43
2018-12-19T10:31:36.086Z,19.10
2018-12-19T10:34:04.857Z,17.63
2018-12-19T10:36:37.926Z,18.83
2018-12-19T10:39:12.242Z,18.80
2018-12-19T10:41:40.992Z,18.93
2018-12-19T10:44:09.932Z,19.37
2018-12-19T10:46:38.774Z,18.50
2018-12-19T10:49:07.533Z,19.10
2018-12-19T10:51:36.272Z,18.80
2018-12-19T10:54:05.015Z,17.83
2018-12-19T10:56:33.778Z,18.03
2018-12-19T10:59:02.592Z,18.23
2018-12-19T11:01:31.309Z,19.07
2018-12-19T11:03:59.996Z,19.00
2018-12-19T11:06:28.670Z,20.47
2018-12-19T11:08:57.353Z,20.37
2018-12-19T11:11:32.045Z,19.33
2018-12-19T11:13:56.748Z,19.70
2018-12-19T11:16:25.492Z,19.97
2018-12-19T11:18:54.264Z,19.87
2018-12-19T11:21:23.160Z,19.47
2018-12-19T11:23:52.194Z,20.47
2018-12-19T11:26:20.990Z,20.77
2018-12-19T11:28:49.707Z,20.50
2018-12-19T11:31:18.476Z,20.07
2018-12-19T11:33:47.349Z,20.67
2018-12-19T11:36:16.095Z,20.33
2018-12-19T11:38:44.895Z,20.73
2018-12-19T11:41:13.725Z,20.70
2018-12-19T11:43:42.531Z,20.13
2018-12-19T11:46:11.325Z,19.53
2018-12-19T11:48:40.021Z,19.93
2018-12-19T11:51:08.711Z,20.40
2018-12-19T11:53:38.490Z,21.37
2018-12-19T11:56:07.180Z,20.13
2018-12-19T11:58:35.945Z,21.20
2018-12-19T12:01:04.684Z,19.83
2018-12-19T12:03:33.385Z,19.70
2018-12-19T12:06:04.165Z,20.67
2018-12-19T12:08:32.932Z,19.73
2018-12-19T12:11:02.643Z,20.53
2018-12-19T12:13:31.441Z,21.07
2018-12-19T12:16:00.194Z,20.33
2018-12-19T12:18:28.934Z,20.77
2018-12-19T12:20:57.661Z,20.37
2018-12-19T12:23:26.417Z,20.17
2018-12-19T12:25:55.231Z,20.60
2018-12-19T12:28:24.055Z,21.07
2018-12-19T12:30:53.808Z,20.80
2018-12-19T12:33:30.367Z,21.10
2018-12-19T12:35:59.465Z,20.80
2018-12-19T12:38:34.062Z,20.97
2018-12-19T12:40:59.083Z,21.27
2018-12-19T12:43:27.852Z,20.73
2018-12-19T12:45:56.641Z,20.93
2018-12-19T12:48:25.400Z,20.90
2018-12-19T12:50:54.198Z,22.27
2018-12-19T12:53:23.869Z,22.17
2018-12-19T12:55:52.753Z,21.67
2018-12-19T12:58:21.473Z,22.30
2018-12-19T13:00:50.212Z,23.43
2018-12-19T13:03:18.993Z,22.53
2018-12-19T13:05:47.811Z,21.67
2018-12-19T13:08:16.675Z,23.23
2018-12-19T13:10:45.525Z,22.10
2018-12-19T13:13:14.402Z,21.83
2018-12-19T13:15:46.834Z,22.27
2018-12-19T13:18:15.840Z,21.53
2018-12-19T13:20:44.577Z,22.33
2018-12-19T13:23:13.411Z,22.30
2018-12-19T13:25:42.162Z,22.97
2018-12-19T13:28:10.941Z,21.00
2018-12-19T13:30:39.864Z,21.47
2018-12-19T13:33:08.583Z,21.57
2018-12-19T13:35:37.283Z,21.17
2018-12-19T13:38:06.074Z,22.07
2018-12-19T13:40:35.044Z,21.63
2018-12-19T13:43:03.999Z,22.07
2018-12-19T13:45:32.803Z,22.07
2018-12-19T13:48:01.498Z,22.87
2018-12-19T13:50:30.321Z,23.27
2018-12-19T13:52:59.397Z,23.33
2018-12-19T13:55:28.172Z,21.73
2018-12-19T13:57:56.959Z,21.60
2018-12-19T14:00:25.733Z,22.23
2018-12-19T14:02:54.620Z,21.97
2018-12-19T14:05:24.399Z,22.00
2018-12-19T14:07:53.215Z,22.10
2018-12-19T14:10:22.016Z,21.20
2018-12-19T14:12:50.742Z,21.67
2018-12-19T14:15:19.548Z,21.93
2018-12-19T14:17:48.457Z,21.60
2018-12-19T14:20:17.498Z,22.47
2018-12-19T14:22:46.502Z,22.73
2018-12-19T14:25:15.295Z,22.10
2018-12-19T14:27:44.044Z,23.13
2018-12-19T14:30:12.859Z,22.20
2018-12-19T14:32:41.575Z,31.77
2018-12-19T14:35:10.424Z,23.83
2018-12-19T14:37:40.218Z,22.50
2018-12-19T14:40:09.143Z,23.40
2018-12-19T14:42:37.952Z,22.97
2018-12-19T14:45:07.923Z,21.87
2018-12-19T14:47:36.724Z,23.07
2018-12-19T14:50:07.110Z,23.37
2018-12-19T14:52:35.927Z,24.83
2018-12-19T14:55:04.953Z,24.40
2018-12-19T14:57:33.844Z,22.53
2018-12-19T15:00:02.722Z,22.70
2018-12-19T15:02:32.062Z,22.53
2018-12-19T15:05:00.781Z,24.73
2018-12-19T15:07:29.667Z,21.60
2018-12-19T15:09:58.683Z,23.57
2018-12-19T15:12:27.463Z,23.27
2018-12-19T15:14:56.296Z,23.27
2018-12-19T15:17:26.168Z,23.40
2018-12-19T15:19:55.093Z,22.53
2018-12-19T15:22:23.910Z,22.13
2018-12-19T15:24:52.728Z,22.97
2018-12-19T15:27:24.400Z,23.13
2018-12-19T15:29:53.115Z,23.87
2018-12-19T15:32:21.921Z,23.23
2018-12-19T15:34:50.686Z,22.37
2018-12-19T15:37:19.498Z,23.07
2018-12-19T15:39:48.356Z,23.00
2018-12-19T15:42:17.098Z,23.17
2018-12-19T15:44:45.844Z,22.60
2018-12-19T15:47:14.726Z,27.50
2018-12-19T15:49:43.509Z,22.67
2018-12-19T15:52:12.176Z,23.00
2018-12-19T15:54:40.932Z,21.73
2018-12-19T15:57:09.668Z,23.20
2018-12-19T15:59:38.433Z,23.73
2018-12-19T16:02:07.163Z,22.70
2018-12-19T16:04:36.063Z,23.57
2018-12-19T16:07:04.816Z,22.90
2018-12-19T16:09:33.485Z,24.23
2018-12-19T16:12:02.278Z,23.10
2018-12-19T16:14:31.052Z,24.50
2018-12-19T16:16:59.791Z,23.27
2018-12-19T16:19:28.469Z,23.95
2018-12-19T16:21:57.156Z,26.43
2018-12-19T16:24:33.052Z,25.53
2018-12-19T16:27:01.937Z,24.60
2018-12-19T16:29:30.715Z,24.60
2018-12-19T16:31:59.469Z,26.80
2018-12-19T16:34:28.445Z,36.80
2018-12-19T16:36:57.232Z,35.40
2018-12-19T16:39:26.614Z,26.73
2018-12-19T16:41:55.416Z,24.40
2018-12-19T16:44:24.403Z,25.10
2018-12-19T16:46:53.220Z,28.07
2018-12-19T16:49:21.921Z,26.00
2018-12-19T16:51:50.601Z,23.70
2018-12-19T16:54:19.289Z,23.17
2018-12-19T16:56:48.001Z,22.53
2018-12-19T16:59:16.761Z,23.03
2018-12-19T17:01:45.436Z,21.97
2018-12-19T17:04:14.103Z,28.23
2018-12-19T17:06:43.048Z,22.03
2018-12-19T17:09:11.788Z,20.20
2018-12-19T17:11:40.495Z,21.80
2018-12-19T17:14:09.253Z,22.07
2018-12-19T17:16:37.949Z,22.30
2018-12-19T17:19:06.749Z,21.87
2018-12-19T17:21:35.565Z,21.23
2018-12-19T17:24:04.425Z,22.53
2018-12-19T17:26:33.229Z,20.13
2018-12-19T17:29:01.942Z,22.80
2018-12-19T17:31:31.685Z,20.50
2018-12-19T17:34:00.384Z,21.33
2018-12-19T17:36:29.209Z,20.00
2018-12-19T17:38:57.883Z,20.63
2018-12-19T17:41:27.472Z,21.20
2018-12-19T17:43:57.123Z,20.00
2018-12-19T17:46:25.871Z,20.37
2018-12-19T17:48:54.676Z,21.00
2018-12-19T17:51:23.384Z,20.83
2018-12-19T17:53:52.149Z,20.60
2018-12-19T17:56:20.972Z,21.10
2018-12-19T17:58:49.777Z,19.87
2018-12-19T18:01:18.611Z,20.23
2018-12-19T18:03:47.348Z,21.50
2018-12-19T18:06:16.111Z,20.33
2018-12-19T18:08:44.960Z,21.90
2018-12-19T18:11:13.808Z,21.87
2018-12-19T18:13:42.909Z,21.03
2018-12-19T18:16:11.609Z,19.97
2018-12-19T18:18:40.391Z,20.17
2018-12-19T18:21:09.272Z,20.13
2018-12-19T18:23:38.091Z,21.13
2018-12-19T18:26:06.847Z,21.60
2018-12-19T18:28:35.566Z,21.17
2018-12-19T18:31:04.380Z,21.40
2018-12-19T18:33:33.164Z,22.13
2018-12-19T18:36:01.887Z,20.20
2018-12-19T18:38:31.665Z,21.57
2018-12-19T18:41:00.344Z,19.87
2018-12-19T18:43:29.172Z,20.43
2018-12-19T18:45:57.992Z,21.37
2018-12-19T18:48:27.587Z,20.73
2018-12-19T18:50:56.379Z,20.17
2018-12-19T18:53:25.137Z,20.70
2018-12-19T18:55:53.928Z,20.97
2018-12-19T18:58:22.745Z,20.97
2018-12-19T19:00:51.431Z,20.17
2018-12-19T19:03:20.176Z,22.43
2018-12-19T19:05:48.982Z,20.77
2018-12-19T19:08:17.678Z,20.70
2018-12-19T19:10:46.616Z,21.27
2018-12-19T19:13:19.622Z,21.43
2018-12-19T19:15:46.273Z,20.67
2018-12-19T19:18:15.136Z,21.27
2018-12-19T19:20:43.839Z,21.53
2018-12-19T19:23:12.567Z,20.67
2018-12-19T19:25:41.335Z,21.73
2018-12-19T19:28:10.120Z,21.33
2018-12-19T19:30:39.104Z,21.80
2018-12-19T19:33:07.880Z,22.13
2018-12-19T19:35:36.795Z,21.70
2018-12-19T19:38:05.469Z,22.90
2018-12-19T19:40:34.221Z,24.43
2018-12-19T19:43:02.883Z,27.23
2018-12-19T19:45:31.715Z,27.70
2018-12-19T19:48:00.505Z,28.70
2018-12-19T19:50:29.341Z,26.13
2018-12-19T19:52:58.358Z,24.47
2018-12-19T19:55:27.059Z,24.60
2018-12-19T19:57:55.770Z,23.47
2018-12-19T20:00:31.668Z,22.47
2018-12-19T20:03:01.180Z,21.77
2018-12-19T20:05:29.926Z,22.50
2018-12-19T20:08:01.821Z,23.37
2018-12-19T20:10:30.877Z,24.00
2018-12-19T20:12:59.556Z,24.70
2018-12-19T20:15:28.544Z,25.10
2018-12-19T20:17:57.243Z,23.13
2018-12-19T20:20:26.099Z,23.93
2018-12-19T20:22:54.943Z,24.43
2018-12-19T20:25:23.625Z,23.17
2018-12-19T20:27:52.321Z,22.67
2018-12-19T20:30:21.068Z,22.00
2018-12-19T20:32:49.784Z,22.63
2018-12-19T20:35:18.488Z,22.50
2018-12-19T20:37:47.219Z,22.60
2018-12-19T20:40:15.884Z,22.47
2018-12-19T20:42:44.551Z,22.63
2018-12-19T20:45:13.407Z,22.87
2018-12-19T20:47:42.359Z,22.63
2018-12-19T20:50:13.071Z,22.40
2018-12-19T20:52:41.746Z,21.67
2018-12-19T20:55:10.571Z,21.80
2018-12-19T20:57:39.338Z,23.03
2018-12-19T21:00:08.265Z,22.93
2018-12-19T21:02:43.458Z,24.13
2018-12-19T21:05:12.224Z,25.83
2018-12-19T21:07:40.932Z,25.50
2018-12-19T21:10:09.763Z,26.57
2018-12-19T21:12:39.642Z,26.50
2018-12-19T21:15:08.661Z,25.57
2018-12-19T21:17:42.814Z,25.87
2018-12-19T21:20:11.612Z,25.07
2018-12-19T21:22:40.312Z,25.90
2018-12-19T21:25:09.083Z,24.73
2018-12-19T21:27:37.852Z,23.97
2018-12-19T21:30:08.465Z,23.67
2018-12-19T21:32:37.607Z,24.10
2018-12-19T21:35:06.388Z,24.20
2018-12-19T21:37:35.153Z,24.50
2018-12-19T21:40:04.189Z,23.53
2018-12-19T21:42:32.996Z,23.57
2018-12-19T21:45:01.748Z,23.37
2018-12-19T21:47:30.567Z,23.87
2018-12-19T21:49:59.360Z,23.37
2018-12-19T21:52:29.076Z,23.23
2018-12-19T21:54:57.848Z,23.53
2018-12-19T21:57:26.669Z,23.00
2018-12-19T21:59:55.376Z,22.17
2018-12-19T22:02:24.122Z,23.37
2018-12-19T22:04:52.892Z,23.27
2018-12-19T22:07:22.064Z,24.33
2018-12-19T22:09:50.783Z,23.00
2018-12-19T22:12:19.494Z,22.87
2018-12-19T22:14:48.265Z,22.73
2018-12-19T22:17:22.636Z,23.43
2018-12-19T22:19:51.362Z,22.70
2018-12-19T22:22:22.059Z,23.47
2018-12-19T22:24:50.855Z,22.47
2018-12-19T22:27:19.523Z,23.27
2018-12-19T22:29:48.253Z,24.40
2018-12-19T22:32:17.112Z,24.67
2018-12-19T22:34:45.894Z,25.90
2018-12-19T22:37:14.720Z,26.23
2018-12-19T22:39:43.514Z,25.47
2018-12-19T22:42:12.435Z,24.63
2018-12-19T22:44:41.414Z,25.67
2018-12-19T22:47:11.333Z,25.63
2018-12-19T22:49:40.177Z,24.30
2018-12-19T22:52:09.278Z,23.63
2018-12-19T22:54:38.193Z,23.20
2018-12-19T22:57:06.946Z,23.87
2018-12-19T22:59:35.863Z,23.33
2018-12-19T23:02:10.231Z,24.03
2018-12-19T23:04:39.373Z,23.90
2018-12-19T23:07:08.148Z,24.10
2018-12-19T23:09:37.042Z,24.70
2018-12-19T23:12:05.839Z,26.00
2018-12-19T23:14:34.657Z,24.63
2018-12-19T23:17:14.583Z,24.37
2018-12-19T23:19:49.226Z,24.77
2018-12-19T23:22:23.896Z,25.37
2018-12-19T23:24:59.404Z,24.13
2018-12-19T23:27:30.295Z,25.13
2018-12-19T23:30:01.203Z,25.77
2018-12-19T23:32:31.994Z,24.00
2018-12-19T23:35:00.807Z,24.10
2018-12-19T23:37:29.859Z,25.57
2018-12-19T23:39:59.490Z,24.47
2018-12-19T23:42:28.533Z,23.63
2018-12-19T23:44:57.338Z,23.23
2018-12-19T23:47:26.192Z,25.40
2018-12-19T23:49:54.940Z,25.30
2018-12-19T23:52:23.904Z,23.77
2018-12-19T23:54:52.647Z,24.53
2018-12-19T23:57:21.423Z,25.63
2018-12-19T23:59:50.145Z,25.10
